Time;durP1;ratioP1;P1;durP2;ratioP2;P2;SDS_P1;SDS_P2;PMS_P1;PMS_P2;Temp;Humidity;BMP_temperature;BMP_pressure;BME280_temperature;BME280_humidity;BME280_pressure;Samples;Min_cycle;Max_cycle;Signal;HPM_P1;HPM_P2
2021/03/26 00:02:21;;;;;;;61.90;30.92;;;;;;;11.50;33.70;101525.28;4971238;28;97450;-75
2021/03/26 00:04:48;;;;;;;59.58;30.10;;;;;;;11.53;33.74;101527.13;5005409;28;100247;-75
2021/03/26 00:07:15;;;;;;;58.60;29.90;;;;;;;11.54;33.80;101527.19;4968296;28;99787;-75
2021/03/26 00:09:42;;;;;;;62.47;31.17;;;;;;;11.55;33.69;101523.66;4955575;28;96905;-76
2021/03/26 00:12:12;;;;;;;61.38;31.27;;;;;;;11.54;33.81;101528.94;4956312;28;96875;-75
2021/03/26 00:14:40;;;;;;;62.80;32.15;;;;;;;11.52;33.55;101530.66;4971993;28;99829;-76
2021/03/26 00:17:07;;;;;;;59.78;29.67;;;;;;;11.51;33.78;101524.41;4970758;28;98459;-76
2021/03/26 00:19:34;;;;;;;60.85;30.73;;;;;;;11.51;33.70;101528.84;5005803;28;98269;-77
2021/03/26 00:22:03;;;;;;;60.83;32.20;;;;;;;11.47;33.85;101522.50;4987720;28;99162;-77
2021/03/26 00:24:30;;;;;;;67.35;30.65;;;;;;;11.44;34.14;101521.53;4971755;28;97078;-76
2021/03/26 00:26:57;;;;;;;59.95;30.15;;;;;;;11.46;33.84;101520.72;4991132;28;97567;-76
2021/03/26 00:29:24;;;;;;;62.63;31.05;;;;;;;11.45;34.01;101520.69;4971909;28;97350;-77
2021/03/26 00:31:51;;;;;;;60.25;31.20;;;;;;;11.44;33.99;101518.84;5005976;28;97668;-76
2021/03/26 00:34:19;;;;;;;61.83;32.33;;;;;;;11.44;34.08;101516.19;4955031;28;96826;-75
2021/03/26 00:36:47;;;;;;;58.33;31.58;;;;;;;11.42;34.13;101523.22;4970296;28;99761;-76
2021/03/26 00:39:13;;;;;;;64.05;30.52;;;;;;;11.40;34.05;101520.53;4957221;28;96796;-76
2021/03/26 00:41:40;;;;;;;62.50;32.50;;;;;;;11.40;33.99;101520.53;4967732;28;98175;-75
2021/03/26 00:44:07;;;;;;;60.40;30.10;;;;;;;11.39;34.07;101517.81;4971029;28;96936;-76
2021/03/26 00:46:35;;;;;;;64.32;32.03;;;;;;;11.40;34.02;101520.53;4971051;28;96879;-76
2021/03/26 00:49:03;;;;;;;69.45;32.97;;;;;;;11.38;34.19;101522.25;4972367;28;98132;-75
2021/03/26 00:51:30;;;;;;;65.65;32.50;;;;;;;11.38;34.30;101526.69;4957387;28;96848;-75
2021/03/26 00:53:57;;;;;;;64.38;30.98;;;;;;;11.33;34.19;101522.97;4969372;28;98896;-75
2021/03/26 00:56:24;;;;;;;60.40;29.75;;;;;;;11.36;34.16;101515.09;4987142;28;98858;-76
2021/03/26 00:58:51;;;;;;;60.33;30.58;;;;;;;11.33;34.32;101514.97;4954902;28;96801;-75
2021/03/26 01:01:18;;;;;;;62.85;31.92;;;;;;;11.34;34.28;101511.47;4970972;28;96909;-76
2021/03/26 01:03:46;;;;;;;66.07;32.55;;;;;;;11.32;34.41;101502.53;4954765;28;98973;-76
2021/03/26 01:06:14;;;;;;;66.82;32.67;;;;;;;11.30;34.22;101506.88;4970359;28;98065;-76
2021/03/26 01:08:41;;;;;;;64.93;31.98;;;;;;;11.31;34.50;101506.94;5004171;28;96869;-76
2021/03/26 01:11:15;;;;;;;60.33;30.20;;;;;;;11.30;34.40;101505.09;4987037;28;97580;-75
2021/03/26 01:13:44;;;;;;;63.30;32.92;;;;;;;11.29;34.49;101505.94;4950414;28;98444;-76
2021/03/26 01:16:11;;;;;;;64.63;32.67;;;;;;;11.28;34.52;101508.56;4989486;28;96713;-76
2021/03/26 01:18:42;;;;;;;64.72;33.22;;;;;;;11.28;34.58;101512.16;4971701;28;96972;-74
2021/03/26 01:21:13;;;;;;;66.80;32.63;;;;;;;11.26;34.77;101503.22;4956436;28;96970;-76
2021/03/26 01:23:41;;;;;;;70.45;32.50;;;;;;;11.26;34.40;101508.53;4953309;28;97314;-75
2021/03/26 01:26:09;;;;;;;64.43;33.15;;;;;;;11.23;34.54;101506.66;4972438;28;97604;-77
2021/03/26 01:28:44;;;;;;;63.92;32.15;;;;;;;11.20;34.75;101511.91;4973578;28;96924;-78
2021/03/26 01:31:45;;;;;;;64.40;31.23;;;;;;;11.23;34.83;101510.22;4969784;28;97394;-76
2021/03/26 01:34:12;;;;;;;64.55;31.83;;;;;;;11.23;34.80;101510.22;4971697;28;99690;-76
2021/03/26 01:36:46;;;;;;;65.32;34.05;;;;;;;11.22;34.81;101509.28;4956221;28;99642;-77
2021/03/26 01:39:17;;;;;;;67.32;34.70;;;;;;;11.25;34.63;101498.72;4955866;28;96847;-76
2021/03/26 01:41:49;;;;;;;64.65;34.92;;;;;;;11.23;35.02;101499.56;4972236;28;96997;-75
2021/03/26 01:44:21;;;;;;;69.57;34.20;;;;;;;11.18;35.23;101494.06;4959792;28;97092;-76
2021/03/26 01:46:50;;;;;;;72.68;37.13;;;;;;;11.18;35.08;101496.72;4987628;28;97478;-76
2021/03/26 01:49:21;;;;;;;72.22;36.72;;;;;;;11.15;35.39;101488.66;5008192;27;97819;-76
2021/03/26 01:51:52;;;;;;;78.55;38.28;;;;;;;11.12;35.39;101491.25;4956056;28;96921;-76
2021/03/26 01:54:22;;;;;;;74.85;37.97;;;;;;;11.10;35.38;101490.28;4955864;28;99293;-76
2021/03/26 01:56:52;;;;;;;71.47;37.65;;;;;;;11.08;35.50;101487.59;4956395;28;99852;-76
2021/03/26 01:59:32;;;;;;;71.25;35.35;;;;;;;11.07;35.37;101485.75;4972103;28;97579;-74
2021/03/26 02:02:06;;;;;;;73.95;37.13;;;;;;;11.02;35.76;101483.81;4957984;28;96960;-77
2021/03/26 02:04:47;;;;;;;68.88;36.80;;;;;;;10.98;35.68;101482.81;5006671;27;96908;-77
2021/03/26 02:07:32;;;;;;;66.07;33.83;;;;;;;11.00;35.64;101488.19;4973870;28;96720;-75
2021/03/26 02:10:01;;;;;;;72.88;37.15;;;;;;;11.04;35.72;101490.09;4990721;28;96829;-76
2021/03/26 02:12:31;;;;;;;77.80;38.55;;;;;;;11.08;35.71;101489.34;4988669;28;96738;-76
2021/03/26 02:15:08;;;;;;;71.82;37.00;;;;;;;11.08;35.73;101492.00;4955705;28;98359;-76
2021/03/26 02:17:39;;;;;;;68.57;37.58;;;;;;;11.06;35.65;101488.38;4973719;28;97263;-76
2021/03/26 02:20:13;;;;;;;79.28;38.65;;;;;;;11.03;35.61;101490.97;4972964;28;97322;-76
2021/03/26 02:23:06;;;;;;;81.72;38.67;;;;;;;11.01;35.92;101490.00;4957986;28;97005;-74
2021/03/26 02:25:36;;;;;;;72.05;39.05;;;;;;;11.01;35.51;101492.69;4973834;28;97065;-74
2021/03/26 02:28:04;;;;;;;81.72;39.33;;;;;;;11.00;35.76;101497.09;4975488;28;97781;-76
2021/03/26 02:30:54;;;;;;;75.68;38.85;;;;;;;10.99;35.69;101499.72;4970950;28;96852;-76
2021/03/26 02:33:22;;;;;;;73.60;40.75;;;;;;;10.93;35.71;101511.06;4958062;28;96878;-77
2021/03/26 02:35:51;;;;;;;77.72;39.45;;;;;;;10.89;35.96;101505.59;4971639;28;97690;-77
2021/03/26 02:38:34;;;;;;;76.00;37.33;;;;;;;10.89;35.88;101518.91;4947922;28;99030;-75
2021/03/26 02:41:22;;;;;;;81.00;40.45;;;;;;;10.85;36.06;101512.59;4972508;28;96849;-74
2021/03/26 02:43:55;;;;;;;84.05;41.75;;;;;;;10.86;36.04;101509.09;5004260;28;97355;-77
2021/03/26 02:46:28;;;;;;;84.30;39.20;;;;;;;10.92;35.94;101509.25;4969756;28;98841;-75
2021/03/26 02:49:01;;;;;;;81.00;40.88;;;;;;;10.91;36.18;101506.56;4955226;28;99282;-75
2021/03/26 02:51:32;;;;;;;86.70;40.30;;;;;;;10.94;36.07;101509.31;4971774;28;97760;-77
2021/03/26 02:54:05;;;;;;;75.28;37.47;;;;;;;10.95;36.05;101506.72;4972078;28;96803;-76
2021/03/26 02:56:37;;;;;;;76.20;39.53;;;;;;;10.96;36.19;101507.59;4989783;28;98637;-75
2021/03/26 02:59:07;;;;;;;79.55;39.17;;;;;;;10.97;36.11;101506.75;4971657;28;99960;-75
2021/03/26 03:01:37;;;;;;;74.88;39.17;;;;;;;11.00;35.93;101505.09;4967298;28;96954;-76
2021/03/26 03:04:12;;;;;;;78.03;39.92;;;;;;;11.03;36.08;101501.63;4956449;28;97114;-76
2021/03/26 03:06:42;;;;;;;77.30;38.28;;;;;;;11.04;36.09;101507.00;4970620;28;97397;-77
2021/03/26 03:09:20;;;;;;;77.78;37.50;;;;;;;11.10;35.96;101508.94;4970675;28;97952;-75
2021/03/26 03:11:51;;;;;;;83.03;38.53;;;;;;;11.05;36.05;101511.44;5006638;28;96863;-74
2021/03/26 03:14:22;;;;;;;81.50;38.97;;;;;;;11.02;36.16;101508.69;4990193;28;97114;-75
2021/03/26 03:16:55;;;;;;;69.50;36.40;;;;;;;11.04;36.46;101508.75;4971212;28;96999;-75
2021/03/26 03:19:30;;;;;;;71.40;38.03;;;;;;;11.09;36.27;101507.09;4956494;28;98756;-76
2021/03/26 03:22:01;;;;;;;78.13;40.13;;;;;;;11.11;36.29;101510.72;4972350;28;97015;-74
2021/03/26 03:24:34;;;;;;;72.97;36.10;;;;;;;11.10;36.18;101519.59;4957836;28;97409;-73
2021/03/26 03:27:12;;;;;;;75.10;37.25;;;;;;;11.05;36.48;101516.78;4999630;28;99614;-76
2021/03/26 03:29:47;;;;;;;76.95;37.67;;;;;;;11.04;36.16;101514.06;4957937;28;99854;-77
2021/03/26 03:32:27;;;;;;;77.53;38.50;;;;;;;11.02;36.65;101510.44;4956199;28;96965;-76
2021/03/26 03:35:06;;;;;;;69.00;37.80;;;;;;;10.97;36.43;101506.75;4955992;28;96775;-75
2021/03/26 03:37:38;;;;;;;77.57;36.08;;;;;;;10.91;36.62;101510.13;4974506;28;97748;-75
2021/03/26 03:40:10;;;;;;;74.03;37.25;;;;;;;10.93;36.67;101510.16;4956924;28;99798;-74
2021/03/26 03:42:41;;;;;;;72.88;35.63;;;;;;;10.87;36.71;101508.22;4954988;28;96683;-76
2021/03/26 03:45:13;;;;;;;70.55;35.55;;;;;;;10.89;36.76;101506.50;5004518;28;96884;-75
2021/03/26 03:47:47;;;;;;;71.15;37.15;;;;;;;10.92;36.55;101508.38;4962039;28;100211;-74
2021/03/26 03:50:21;;;;;;;75.85;38.03;;;;;;;10.90;36.69;101516.28;4952692;28;98937;-75
2021/03/26 03:52:52;;;;;;;73.13;37.08;;;;;;;10.90;36.77;101510.97;4988613;28;96859;-75
2021/03/26 03:55:23;;;;;;;69.93;36.42;;;;;;;10.90;36.51;101515.41;4957483;28;96900;-76
2021/03/26 03:58:02;;;;;;;72.45;37.75;;;;;;;10.81;36.88;101516.00;5004245;28;99338;-75
2021/03/26 04:00:32;;;;;;;83.38;43.60;;;;;;;10.79;36.87;101512.41;4968664;28;98005;-76
2021/03/26 04:03:09;;;;;;;82.90;37.63;;;;;;;10.78;37.05;101509.66;4955716;28;96940;-77
2021/03/26 04:05:41;;;;;;;80.95;37.05;;;;;;;10.76;36.95;101519.38;4988981;28;98237;-75
2021/03/26 04:08:18;;;;;;;79.78;37.78;;;;;;;10.72;37.02;101509.50;5002375;27;97452;-75
2021/03/26 04:10:55;;;;;;;79.15;38.67;;;;;;;10.71;37.11;101523.66;4956353;28;96775;-76
2021/03/26 04:13:24;;;;;;;73.05;37.10;;;;;;;10.71;37.17;101515.66;4959516;28;97407;-76
2021/03/26 04:15:55;;;;;;;79.80;38.70;;;;;;;10.70;37.13;101514.75;4974014;28;97660;-76
2021/03/26 04:18:34;;;;;;;72.78;36.17;;;;;;;10.70;37.19;101514.75;4993150;28;97227;-75
2021/03/26 04:21:24;;;;;;;69.60;35.60;;;;;;;10.67;37.17;101522.66;4988220;28;98556;-75
2021/03/26 04:24:09;;;;;;;70.50;36.20;;;;;;;10.66;37.18;101514.63;4954353;28;97126;-75
2021/03/26 04:26:59;;;;;;;76.85;37.67;;;;;;;10.62;37.03;101518.03;4971253;28;97492;-75
2021/03/26 04:29:53;;;;;;;70.65;36.78;;;;;;;10.62;37.10;101518.94;4951001;28;97147;-76
2021/03/26 04:32:25;;;;;;;71.47;36.45;;;;;;;10.64;37.07;101517.22;4987345;28;98111;-76
2021/03/26 04:34:54;;;;;;;72.68;37.20;;;;;;;10.64;37.09;101514.56;4954380;28;96992;-75
2021/03/26 04:37:27;;;;;;;78.13;37.40;;;;;;;10.58;37.26;101514.38;4956700;28;96899;-74
2021/03/26 04:40:01;;;;;;;78.13;37.08;;;;;;;10.55;37.27;101514.28;4948697;28;99068;-76
2021/03/26 04:42:38;;;;;;;69.40;36.05;;;;;;;10.53;37.32;101515.06;4969408;28;97491;-75
2021/03/26 04:45:09;;;;;;;67.65;34.90;;;;;;;10.51;37.30;101509.69;5001711;28;97162;-76
2021/03/26 04:47:56;;;;;;;66.47;35.55;;;;;;;10.51;37.24;101519.44;4985937;28;97227;-75
2021/03/26 04:50:41;;;;;;;76.30;36.42;;;;;;;10.44;37.43;101517.44;4952495;28;97056;-75
2021/03/26 04:53:13;;;;;;;72.88;37.67;;;;;;;10.41;37.55;101517.31;4953913;28;98357;-75
2021/03/26 04:55:43;;;;;;;69.25;36.28;;;;;;;10.36;37.49;101514.47;5002238;28;97556;-75
2021/03/26 04:58:39;;;;;;;71.88;35.92;;;;;;;10.34;37.67;101512.63;4971119;28;98008;-75
2021/03/26 05:01:26;;;;;;;74.68;35.67;;;;;;;10.33;37.46;101513.47;4967397;28;99055;-74
2021/03/26 05:04:05;;;;;;;71.00;37.15;;;;;;;10.30;37.54;101508.97;4973157;28;98596;-75
2021/03/26 05:06:37;;;;;;;76.20;39.35;;;;;;;10.32;37.56;101507.22;4948928;28;97006;-74
2021/03/26 05:09:12;;;;;;;76.00;35.60;;;;;;;10.33;37.54;101502.81;4969856;28;96967;-74
2021/03/26 05:11:42;;;;;;;76.60;37.95;;;;;;;10.31;37.61;101509.84;4967231;28;99379;-76
2021/03/26 05:14:19;;;;;;;76.10;36.22;;;;;;;10.31;37.64;101507.19;4968355;28;98472;-75
2021/03/26 05:16:51;;;;;;;82.15;37.92;;;;;;;10.30;37.33;101513.38;4988871;28;96903;-75
2021/03/26 05:19:47;;;;;;;70.55;35.20;;;;;;;10.30;37.68;101508.97;4973720;28;97404;-76
2021/03/26 05:22:26;;;;;;;75.15;36.10;;;;;;;10.26;37.68;101508.78;4972865;28;97863;-74
2021/03/26 05:25:16;;;;;;;75.38;35.78;;;;;;;10.22;37.76;101502.47;5006247;27;99076;-75
2021/03/26 05:28:04;;;;;;;71.72;36.60;;;;;;;10.25;37.78;101509.66;5008885;27;97370;-75
2021/03/26 05:30:35;;;;;;;68.28;35.58;;;;;;;10.23;37.80;101516.69;4989594;28;97025;-74
2021/03/26 05:33:19;;;;;;;68.65;37.08;;;;;;;10.15;37.82;101512.00;4955097;28;99270;-75
2021/03/26 05:35:52;;;;;;;67.78;35.17;;;;;;;10.13;37.96;101516.38;4956935;28;98510;-75
2021/03/26 05:38:50;;;;;;;65.57;35.80;;;;;;;10.14;38.06;101512.84;4971989;28;96968;-74
2021/03/26 05:41:51;;;;;;;69.75;35.70;;;;;;;10.14;38.46;101514.59;4971154;28;97177;-75
2021/03/26 05:45:07;;;;;;;76.25;35.75;;;;;;;10.14;38.11;101518.16;4952647;28;98833;-75
2021/03/26 05:48:40;;;;;;;71.78;34.92;;;;;;;10.14;38.55;101528.81;4965636;28;98936;-75
2021/03/26 05:52:04;;;;;;;69.35;34.30;;;;;;;10.07;38.68;101523.22;4954747;28;97339;-75
2021/03/26 05:54:47;;;;;;;71.25;35.78;;;;;;;10.02;38.49;101532.78;4887061;28;97333;-76
2021/03/26 05:57:21;;;;;;;72.47;35.05;;;;;;;10.01;38.08;101534.53;4975211;28;97427;-76
2021/03/26 06:00:02;;;;;;;79.28;38.28;;;;;;;10.02;38.41;101539.03;4989347;28;98534;-76
2021/03/26 06:03:05;;;;;;;71.80;36.08;;;;;;;10.02;38.50;101539.03;4970718;28;97082;-76
2021/03/26 06:06:24;;;;;;;82.13;37.80;;;;;;;10.01;38.56;101542.50;4971511;28;97029;-76
2021/03/26 06:09:51;;;;;;;70.32;35.75;;;;;;;10.07;38.61;101540.09;4970779;28;99471;-76
2021/03/26 06:13:05;;;;;;;81.45;37.13;;;;;;;10.08;38.78;101535.69;4973985;28;97776;-76
2021/03/26 06:16:37;;;;;;;75.30;37.42;;;;;;;10.15;38.52;101540.34;4976222;28;96952;-76
2021/03/26 06:19:52;;;;;;;65.32;33.38;;;;;;;10.20;38.66;101539.66;4972842;28;97971;-76
2021/03/26 06:23:07;;;;;;;69.47;33.45;;;;;;;10.24;38.46;101543.34;4969305;28;98163;-76
2021/03/26 06:26:08;;;;;;;71.75;36.25;;;;;;;10.30;38.23;101534.66;4973340;28;97662;-76
2021/03/26 06:28:41;;;;;;;80.57;35.83;;;;;;;10.31;37.96;101534.69;4973459;28;96089;-76
2021/03/26 06:31:45;;;;;;;72.15;37.45;;;;;;;10.38;38.53;101539.38;4955191;28;96708;-75
2021/03/26 06:35:07;;;;;;;79.60;37.65;;;;;;;10.41;38.32;101538.59;4968191;28;98880;-74
2021/03/26 06:37:54;;;;;;;81.25;36.45;;;;;;;10.38;38.30;101544.69;4975091;28;96806;-77
2021/03/26 06:40:34;;;;;;;82.95;38.83;;;;;;;10.40;38.13;101542.09;4976007;28;97145;-76
2021/03/26 06:43:12;;;;;;;76.53;37.35;;;;;;;10.41;38.14;101543.91;4975048;28;97048;-76
2021/03/26 06:45:59;;;;;;;83.80;39.20;;;;;;;10.41;38.25;101550.16;4973534;28;100463;-76
2021/03/26 06:48:36;;;;;;;83.13;37.80;;;;;;;10.45;37.97;101548.53;4990360;28;99223;-77
2021/03/26 06:51:30;;;;;;;78.82;38.97;;;;;;;10.47;38.32;101549.44;4970877;28;96742;-76
2021/03/26 06:54:10;;;;;;;79.07;38.83;;;;;;;10.49;37.87;101547.75;4971598;28;97348;-76
2021/03/26 06:57:12;;;;;;;79.00;37.55;;;;;;;10.49;38.04;101545.09;4976588;28;98806;-75
2021/03/26 07:00:04;;;;;;;77.78;38.53;;;;;;;10.53;37.85;101544.34;4969962;28;98810;-76
2021/03/26 07:02:49;;;;;;;77.97;38.65;;;;;;;10.58;38.08;101532.09;5004958;28;96924;-77
2021/03/26 07:05:31;;;;;;;75.00;36.13;;;;;;;10.57;37.83;101536.53;4970228;28;96991;-76
2021/03/26 07:08:20;;;;;;;74.85;36.17;;;;;;;10.65;38.13;101524.34;4952491;28;99337;-76
2021/03/26 07:10:56;;;;;;;80.28;38.85;;;;;;;10.72;37.70;101530.78;4965491;28;98734;-75
2021/03/26 07:13:37;;;;;;;74.43;38.10;;;;;;;10.79;37.54;101525.72;5001989;27;97135;-75
2021/03/26 07:16:20;;;;;;;86.47;40.83;;;;;;;10.88;37.56;101522.44;4967196;28;96958;-74
2021/03/26 07:18:58;;;;;;;77.25;38.05;;;;;;;10.88;37.51;101523.34;4982619;28;98642;-75
2021/03/26 07:21:34;;;;;;;78.63;37.63;;;;;;;10.90;37.41;101521.59;4955926;28;99954;-75
2021/03/26 07:24:21;;;;;;;97.40;51.93;;;;;;;10.95;38.48;101517.34;4968537;28;97076;-75
2021/03/26 07:27:06;;;;;;;73.28;39.78;;;;;;;11.07;38.14;101520.38;4968728;28;97265;-76
2021/03/26 07:29:46;;;;;;;81.25;40.30;;;;;;;11.16;38.09;101520.66;5002301;28;97966;-76
2021/03/26 07:32:35;;;;;;;78.35;37.72;;;;;;;11.21;37.54;101520.81;4969141;28;98613;-75
2021/03/26 07:35:22;;;;;;;94.88;52.70;;;;;;;11.30;38.55;101522.84;4966409;28;97121;-75
2021/03/26 07:38:01;;;;;;;93.30;50.97;;;;;;;11.42;38.81;101523.22;4950089;28;97130;-75
2021/03/26 07:40:38;;;;;;;81.50;42.13;;;;;;;11.54;38.46;101524.53;4967750;28;101208;-76
2021/03/26 07:43:22;;;;;;;74.88;40.15;;;;;;;11.64;38.05;101523.91;4950459;28;98142;-77
2021/03/26 07:46:00;;;;;;;72.45;36.55;;;;;;;11.66;37.84;101524.88;4951493;28;97022;-75
2021/03/26 07:49:03;;;;;;;76.00;37.10;;;;;;;11.71;37.52;101525.88;4970821;28;97886;-77
2021/03/26 07:51:33;;;;;;;69.47;34.33;;;;;;;11.79;37.46;101519.03;4948887;28;99813;-76
2021/03/26 07:54:23;;;;;;;71.13;34.88;;;;;;;11.87;37.15;101524.56;4967375;28;98746;-75
2021/03/26 07:57:14;;;;;;;65.93;33.90;;;;;;;11.92;37.32;101525.59;4950872;28;97370;-76
2021/03/26 07:59:56;;;;;;;58.88;31.73;;;;;;;12.00;36.80;101524.94;4953927;28;96802;-75
2021/03/26 08:02:57;;;;;;;66.53;32.85;;;;;;;12.08;37.00;101528.72;4966512;28;98215;-75
2021/03/26 08:05:29;;;;;;;63.97;31.92;;;;;;;12.15;36.62;101522.69;4946963;28;98492;-76
2021/03/26 08:08:30;;;;;;;62.55;32.35;;;;;;;12.25;36.36;101520.28;4967945;28;97314;-75
2021/03/26 08:11:01;;;;;;;61.65;31.95;;;;;;;12.31;36.14;101521.31;4937449;28;96879;-76
2021/03/26 08:14:10;;;;;;;64.22;32.88;;;;;;;12.38;36.40;101526.00;4970575;28;97832;-75
2021/03/26 08:16:58;;;;;;;73.00;32.97;;;;;;;12.44;36.37;101520.78;4954320;28;96746;-75
2021/03/26 08:19:30;;;;;;;69.03;32.75;;;;;;;12.50;36.02;101522.69;4947142;28;96943;-76
2021/03/26 08:22:03;;;;;;;61.15;31.67;;;;;;;12.58;35.79;101524.72;4982918;28;96883;-75
2021/03/26 08:24:40;;;;;;;66.30;32.58;;;;;;;12.67;35.71;101518.69;4965041;28;96892;-76
2021/03/26 08:27:18;;;;;;;60.70;32.10;;;;;;;12.76;35.64;101525.16;4967001;28;98357;-76
2021/03/26 08:29:50;;;;;;;56.95;30.20;;;;;;;12.82;35.58;101529.75;4958324;28;97532;-76
2021/03/26 08:32:39;;;;;;;58.05;31.73;;;;;;;12.89;35.50;101532.56;4970947;28;96875;-76
2021/03/26 08:35:42;;;;;;;53.63;27.83;;;;;;;12.97;35.35;101532.75;4968360;28;98624;-76
2021/03/26 08:38:27;;;;;;;45.83;24.92;;;;;;;13.06;34.93;101527.66;4950242;28;99097;-76
2021/03/26 08:40:58;;;;;;;39.80;23.10;;;;;;;13.04;34.95;101537.41;4979888;28;96837;-75
2021/03/26 08:43:27;;;;;;;40.28;22.95;;;;;;;13.01;35.02;101537.34;4977826;28;96890;-72
2021/03/26 08:46:01;;;;;;;40.83;22.23;;;;;;;12.98;34.71;101537.25;4956872;28;98429;-74
2021/03/26 08:48:34;;;;;;;40.35;22.33;;;;;;;13.04;34.87;101542.75;4968746;28;97525;-72
2021/03/26 08:51:16;;;;;;;38.22;21.40;;;;;;;13.08;34.45;101537.53;4981495;28;96792;-73
2021/03/26 08:53:50;;;;;;;44.42;21.73;;;;;;;12.99;34.44;101528.34;5010104;27;97051;-76
2021/03/26 08:56:24;;;;;;;41.40;21.88;;;;;;;12.96;34.52;101533.63;4977415;28;98502;-75
2021/03/26 08:58:59;;;;;;;34.70;19.98;;;;;;;12.94;34.40;101541.63;4994932;28;98698;-75
2021/03/26 09:01:34;;;;;;;34.50;20.25;;;;;;;13.00;34.05;101539.09;4966410;28;97249;-75
2021/03/26 09:04:16;;;;;;;36.28;20.05;;;;;;;13.09;33.97;101544.66;4974017;28;97264;-76
2021/03/26 09:06:49;;;;;;;36.78;19.45;;;;;;;13.14;33.92;101540.34;4971219;28;96897;-75
2021/03/26 09:09:41;;;;;;;33.50;19.60;;;;;;;13.25;33.12;101539.66;4951786;28;100145;-75
2021/03/26 09:12:28;;;;;;;39.90;22.70;;;;;;;13.33;33.31;101546.97;4970590;28;96999;-75
2021/03/26 09:15:26;;;;;;;36.28;20.80;;;;;;;13.48;33.15;101551.75;5007137;28;97221;-75
2021/03/26 09:18:02;;;;;;;39.90;19.95;;;;;;;13.54;33.34;101546.53;4954151;28;100117;-75
2021/03/26 09:20:34;;;;;;;31.80;17.88;;;;;;;13.63;33.36;101542.31;4971394;28;97112;-74
2021/03/26 09:23:30;;;;;;;35.25;19.73;;;;;;;13.78;32.44;101537.28;5003064;28;97256;-75
2021/03/26 09:26:02;;;;;;;36.28;19.48;;;;;;;13.84;33.01;101536.53;4957134;28;96950;-75
2021/03/26 09:28:33;;;;;;;37.42;20.23;;;;;;;13.91;32.75;101523.31;4953777;28;98882;-75
2021/03/26 09:31:04;;;;;;;34.33;21.10;;;;;;;13.98;32.50;101530.56;4955712;28;98440;-74
2021/03/26 09:33:32;;;;;;;33.25;21.00;;;;;;;13.98;32.60;101530.56;4965660;28;97320;-74
2021/03/26 09:36:22;;;;;;;37.25;20.23;;;;;;;14.09;32.56;101526.31;4964678;28;97217;-75
2021/03/26 09:38:53;;;;;;;36.00;19.88;;;;;;;14.17;32.44;101526.44;4965576;28;98878;-76
2021/03/26 09:41:29;;;;;;;34.55;20.42;;;;;;;14.25;32.66;101518.53;4969650;28;97873;-74
2021/03/26 09:44:00;;;;;;;34.80;19.63;;;;;;;14.31;32.38;101521.34;4968373;28;97394;-74
2021/03/26 09:46:38;;;;;;;32.83;18.92;;;;;;;14.33;31.95;101522.28;5002697;28;97780;-74
2021/03/26 09:49:15;;;;;;;34.22;20.05;;;;;;;14.35;31.63;101518.75;4969661;28;97777;-74
2021/03/26 09:51:46;;;;;;;33.33;19.35;;;;;;;14.30;32.09;101517.75;4988162;28;100555;-75
2021/03/26 09:54:18;;;;;;;32.63;18.02;;;;;;;14.22;31.92;101518.50;4954753;28;97806;-75
2021/03/26 09:56:53;;;;;;;36.22;19.58;;;;;;;14.23;32.02;101509.59;4969784;28;96823;-75
2021/03/26 09:59:30;;;;;;;31.90;18.88;;;;;;;14.32;31.93;101509.75;4954413;28;97954;-75
2021/03/26 10:02:03;;;;;;;30.02;18.13;;;;;;;14.34;32.12;101508.00;4989638;28;98513;-75
2021/03/26 10:04:35;;;;;;;34.00;18.65;;;;;;;14.37;31.67;101508.06;5006429;27;97065;-74
2021/03/26 10:07:17;;;;;;;34.22;18.98;;;;;;;14.38;31.62;101509.84;4968835;28;96875;-76
2021/03/26 10:09:47;;;;;;;32.30;19.05;;;;;;;14.44;31.66;101500.16;4996015;27;98809;-75
2021/03/26 10:12:18;;;;;;;33.55;18.63;;;;;;;14.51;31.51;101501.16;4967476;28;97287;-76
2021/03/26 10:14:50;;;;;;;31.83;19.08;;;;;;;14.61;31.26;101505.84;4957412;28;96816;-75
2021/03/26 10:17:36;;;;;;;37.65;20.35;;;;;;;14.71;31.10;101502.41;4968330;28;96812;-75
2021/03/26 10:20:12;;;;;;;38.90;20.85;;;;;;;14.79;31.08;101493.59;4956137;28;99666;-75
2021/03/26 10:22:50;;;;;;;35.50;19.77;;;;;;;14.82;30.58;101493.69;4947960;28;99711;-75
2021/03/26 10:25:23;;;;;;;42.90;22.50;;;;;;;14.87;30.95;101497.31;4969534;28;97212;-75
2021/03/26 10:27:57;;;;;;;40.17;21.45;;;;;;;14.96;30.91;101493.84;4971685;28;97291;-76
2021/03/26 10:30:27;;;;;;;32.50;20.08;;;;;;;15.04;31.02;101489.53;4972389;28;98140;-76
2021/03/26 10:33:08;;;;;;;39.60;21.60;;;;;;;15.09;30.93;101479.75;4974208;28;96843;-75
2021/03/26 10:35:37;;;;;;;33.40;18.80;;;;;;;15.19;31.00;101488.84;4974007;28;97924;-77
2021/03/26 10:38:09;;;;;;;39.90;20.65;;;;;;;15.28;30.88;101483.59;4972790;28;96810;-75
2021/03/26 10:40:40;;;;;;;35.03;19.50;;;;;;;15.29;30.75;101486.31;4970772;28;97730;-76
2021/03/26 10:43:13;;;;;;;32.38;17.98;;;;;;;15.29;30.36;101478.28;4982400;28;100137;-75
2021/03/26 10:45:43;;;;;;;30.80;18.67;;;;;;;15.33;30.65;101479.22;4974824;28;97327;-75
2021/03/26 10:48:13;;;;;;;37.28;20.60;;;;;;;15.36;30.68;101476.56;4958947;28;97201;-75
2021/03/26 10:51:21;;;;;;;40.30;19.83;;;;;;;15.41;29.84;101472.16;4950610;28;98716;-74
2021/03/26 10:53:54;;;;;;;33.03;18.52;;;;;;;15.36;30.76;101471.19;4942287;28;99397;-74
2021/03/26 10:56:40;;;;;;;32.40;17.80;;;;;;;15.39;29.98;101466.81;5002645;28;96971;-74
2021/03/26 10:59:15;;;;;;;30.17;17.83;;;;;;;15.35;29.81;101456.91;4971358;28;96937;-74
2021/03/26 11:01:44;;;;;;;29.13;18.13;;;;;;;15.37;30.46;101452.47;4964458;28;96953;-74
2021/03/26 11:04:28;;;;;;;57.22;33.55;;;;;;;15.46;30.05;101454.34;4968937;28;98118;-74
2021/03/26 11:07:00;;;;;;;41.53;21.95;;;;;;;15.53;30.25;101445.47;4968277;28;96956;-76
2021/03/26 11:09:29;;;;;;;33.78;19.00;;;;;;;15.63;30.02;101447.41;4965787;28;97060;-75
2021/03/26 11:12:01;;;;;;;31.38;19.38;;;;;;;15.63;29.94;101450.09;4967285;28;97775;-75
2021/03/26 11:14:42;;;;;;;37.85;22.25;;;;;;;15.72;29.95;101444.81;4968247;28;98221;-75
2021/03/26 11:17:16;;;;;;;37.72;22.15;;;;;;;15.76;29.95;101439.47;4980440;28;96896;-73
2021/03/26 11:19:47;;;;;;;33.67;20.20;;;;;;;15.72;29.97;101440.31;4996058;28;96933;-75
2021/03/26 11:22:18;;;;;;;30.95;18.80;;;;;;;15.72;29.97;101437.63;4951014;28;98223;-73
2021/03/26 11:24:56;;;;;;;33.22;19.10;;;;;;;15.69;30.39;101440.31;4949808;28;100017;-73
2021/03/26 11:27:26;;;;;;;31.58;19.00;;;;;;;15.70;29.92;101435.84;4968601;28;96888;-77
2021/03/26 11:30:16;;;;;;;35.08;18.80;;;;;;;15.75;29.56;101439.47;4972354;28;97346;-76
2021/03/26 11:32:45;;;;;;;28.25;16.95;;;;;;;15.71;30.22;101441.22;4966200;28;96982;-75
2021/03/26 11:35:14;;;;;;;28.80;17.35;;;;;;;15.77;30.06;101433.25;4953884;28;98794;-74
2021/03/26 11:37:55;;;;;;;40.60;21.95;;;;;;;15.84;29.92;101421.69;4971778;28;97315;-75
2021/03/26 11:40:27;;;;;;;34.60;18.80;;;;;;;15.93;29.91;101431.59;4973208;28;96717;-76
2021/03/26 11:42:55;;;;;;;31.38;19.45;;;;;;;15.92;29.61;101411.91;5002048;28;97870;-76
2021/03/26 11:45:27;;;;;;;32.90;19.63;;;;;;;16.00;29.82;101406.59;4970546;28;98070;-75
2021/03/26 11:48:03;;;;;;;32.28;19.35;;;;;;;16.01;28.09;101400.41;4969075;28;97029;-75
2021/03/26 11:50:34;;;;;;;29.90;16.42;;;;;;;16.11;29.58;101404.94;4951267;28;96975;-76
2021/03/26 11:53:08;;;;;;;29.63;17.13;;;;;;;16.18;29.33;101398.72;4969742;28;97193;-74
2021/03/26 11:55:38;;;;;;;26.25;17.20;;;;;;;16.24;29.73;101395.19;4982411;28;99883;-75
2021/03/26 11:58:07;;;;;;;26.17;16.55;;;;;;;16.37;29.28;101387.25;4947345;28;96992;-75
2021/03/26 12:00:37;;;;;;;29.30;15.98;;;;;;;16.45;29.20;101384.63;4966574;28;96941;-74